Onweer radar Meer informatie blitzortung!


Regen radar Meer informatie rain snow radar


Bezoek onze andere website:

Template documentation
and downloads

And another site



Het weer levert geen direct gevaar op.    Er zijn geen waarschuwingen afgegeven.

METAR rapporten vliegvelden

   
EHRD - Rotterdam
Gewijzigd: 22-10-2018 12:55
Licht bewolkt  
Licht bewolkt  
   Wind: Noorden 18.5 km/h
Wind: Noorden 18.5 km/h
Temperatuur: 14°C
Dauwpunt: 7°C
Vochtigheid: 63%
Barometer: 1033 hPa
Bewolking: Few Clouds
Zicht: meer dan 10 km
Bewolking: Licht bewolkt 3800 ft
EHRD 221055Z AUTO 36010KT 330V040 9999 FEW038 14/07 Q1033 NOSIG
EHAM - Amsterdam
Gewijzigd: 22-10-2018 12:55
Gedeeltelijk bewolkt  
Gedeeltelijk bewolkt  
   Wind: Noorden 22.2 km/h
Wind: Noorden 22.2 km/h
Temperatuur: 14°C
Dauwpunt: 8°C
Vochtigheid: 67%
Barometer: 1033 hPa
Bewolking: Partly Cloudy
Zicht: meer dan 10 km
Bewolking: Gedeeltelijk bewolkt 2800 ft
EHAM 221055Z 35012KT 310V010 9999 SCT028 14/08 Q1033 NOSIG
EHEH - Eindhoven
Gewijzigd: 22-10-2018 12:55
Helder  
Helder  
   Wind: NNO 25.9 km/h
Wind: NNO 25.9 km/h
Temperatuur: 15°C
Dauwpunt: 8°C
Vochtigheid: 63%
Barometer: 1032 hPa
Bewolking: Clear
Zicht: meer dan 10 km
Bewolking: Helder ft
EHEH 221055Z AUTO 02014KT 350V050 9999 NCD 15/08 Q1032 BLU 01010G20KT 9999 SCT018 BKN035
EHBK - Maastricht
Gewijzigd: 22-10-2018 12:55
Bewolking  
Bewolking  
   Wind: NNO 20.4 km/h
Wind: NNO 20.4 km/h
Temperatuur: 13°C
Dauwpunt: 10°C
Vochtigheid: 82%
Barometer: 1032 hPa
Bewolking: Overcast
Zicht: meer dan 10 km
Bewolking: Gedeeltelijk bewolkt 2700 ft,
Bewolking 3200 ft
EHBK 221055Z AUTO 03011KT 010V070 9999 SCT027 OVC032 13/10 Q1032 NOSIG
EDDL - Brussel
Gewijzigd: 22-10-2018 12:50
Grotendeels bewolkt  
Grotendeels bewolkt  
   Wind: Noorden 13 km/h
Wind: Noorden 13 km/h
Temperatuur: 13°C
Dauwpunt: 10°C
Vochtigheid: 82%
Barometer: 1031 hPa
Bewolking: Mostly Cloudy
Zicht: meer dan 10 km
Bewolking: Licht bewolkt 1200 ft,
Grotendeels bewolkt 3800 ft
EDDL 221050Z 01007KT 350V050 9999 FEW012 BKN038 13/10 Q1031 NOSIG
EBOS - Dusseldorf
Gewijzigd: 22-10-2018 12:50
Grotendeels bewolkt  
Grotendeels bewolkt  
   Wind: Noorden 24.1 km/h
Wind: Noorden 24.1 km/h
Temperatuur: 14°C
Dauwpunt: 7°C
Vochtigheid: 63%
Barometer: 1035 hPa
Bewolking: Mostly Cloudy
Zicht: meer dan 10 km
Bewolking: Licht bewolkt 3000 ft,
Grotendeels bewolkt 3500 ft
EBOS 221050Z 01013KT 9999 FEW030 BKN035 14/07 Q1035 NOSIG

Script ontwikkeld door  Saratoga-weather.org Aangepast voor de template door  Weerstation Leuven

U vindt ons ook hier:

Het Weer Aktueel

European Weather Network

Weather Underground

WeatherlinkIP

HAMweather, WeatherForYou, PWS Weather

Apparatuur in gebruik:

Weerstation
Davis VP2

Weerprogramma
Cumulus

Weercomputer
Zotac

Webleverancier
Quick Servers

Davis VP2

Cumulus

Zotac

Quick Servers